Time,TemperatureF,DewpointF,PressureIn,WindDirection,WindDirectionDegrees,WindSpeedMPH,WindSpeedGustMPH,Humidity,HourlyPrecipIn,Conditions,Clouds,dailyrainin,SoftwareType,DateUTC
2013-07-04 00:10:00,67.2,53.0,29.96,SW,234,16.0,16.0,61,0.00,,,0.00,weatherlink.com 1.10,2013-07-04 07:10:00,
2013-07-04 00:25:00,66.6,52.0,29.96,West,260,5.0,17.0,60,0.00,,,0.00,weatherlink.com 1.10,2013-07-04 07:25:00,
2013-07-04 00:40:00,65.8,52.0,29.97,West,259,6.0,14.0,62,0.00,,,0.00,weatherlink.com 1.10,2013-07-04 07:40:00,
2013-07-04 00:55:00,65.1,52.0,29.97,WNW,302,5.0,15.0,63,0.00,,,0.00,weatherlink.com 1.10,2013-07-04 07:55:00,
2013-07-04 01:11:00,64.3,52.0,29.98,SW,233,4.0,18.0,64,0.00,,,0.00,weatherlink.com 1.10,2013-07-04 08:11:00,
2013-07-04 01:26:00,63.8,52.0,29.98,WSW,250,8.0,14.0,65,0.00,,,0.00,weatherlink.com 1.10,2013-07-04 08:26:00,
2013-07-04 01:41:00,63.2,52.0,29.98,WSW,247,9.0,20.0,67,0.00,,,0.00,weatherlink.com 1.10,2013-07-04 08:41:00,
2013-07-04 01:56:00,62.6,53.0,29.98,West,262,5.0,14.0,70,0.00,,,0.00,weatherlink.com 1.10,2013-07-04 08:56:00,
2013-07-04 02:11:00,62.2,52.0,29.98,WSW,242,7.0,18.0,70,0.00,,,0.00,weatherlink.com 1.10,2013-07-04 09:11:00,
2013-07-04 02:26:00,61.8,53.0,29.98,SW,233,3.0,18.0,72,0.00,,,0.00,weatherlink.com 1.10,2013-07-04 09:26:00,
2013-07-04 02:41:00,61.7,53.0,29.98,SW,226,9.0,18.0,72,0.00,,,0.00,weatherlink.com 1.10,2013-07-04 09:41:00,
2013-07-04 02:56:00,61.2,52.0,29.98,SE,130,5.0,14.0,73,0.00,,,0.00,weatherlink.com 1.10,2013-07-04 09:56:00,
2013-07-04 03:11:00,60.8,52.0,29.98,WSW,241,9.0,20.0,74,0.00,,,0.00,weatherlink.com 1.10,2013-07-04 10:11:00,
2013-07-04 03:26:00,60.5,53.0,29.98,SSW,198,3.0,19.0,75,0.00,,,0.00,weatherlink.com 1.10,2013-07-04 10:26:00,
2013-07-04 03:41:00,60.4,53.0,29.98,WSW,243,10.0,19.0,76,0.00,,,0.00,weatherlink.com 1.10,2013-07-04 10:41:00,
2013-07-04 03:56:00,60.6,52.0,29.98,SSW,193,5.0,16.0,74,0.00,,,0.00,weatherlink.com 1.10,2013-07-04 10:56:00,
2013-07-04 04:11:00,60.6,52.0,29.98,South,181,8.0,14.0,72,0.00,,,0.00,weatherlink.com 1.10,2013-07-04 11:11:00,
2013-07-04 04:26:00,60.4,51.0,29.98,SSW,193,4.0,17.0,72,0.00,,,0.00,weatherlink.com 1.10,2013-07-04 11:26:00,
2013-07-04 04:41:00,60.3,51.0,29.98,SW,234,4.0,13.0,72,0.00,,,0.00,weatherlink.com 1.10,2013-07-04 11:41:00,
2013-07-04 04:56:00,60.0,51.0,29.98,SW,223,2.0,14.0,73,0.00,,,0.00,weatherlink.com 1.10,2013-07-04 11:56:00,
2013-07-04 05:11:00,60.0,51.0,29.98,South,179,7.0,14.0,71,0.00,,,0.00,weatherlink.com 1.10,2013-07-04 12:11:00,
2013-07-04 05:26:00,59.8,51.0,29.99,SSW,200,4.0,14.0,72,0.00,,,0.00,weatherlink.com 1.10,2013-07-04 12:26:00,
2013-07-04 05:41:00,59.4,51.0,29.98,WSW,248,4.0,16.0,73,0.00,,,0.00,weatherlink.com 1.10,2013-07-04 12:41:00,
2013-07-04 05:56:00,59.1,50.0,29.99,SSW,195,2.0,13.0,73,0.00,,,0.00,weatherlink.com 1.10,2013-07-04 12:56:00,
2013-07-04 06:11:00,59.0,51.0,29.99,WSW,245,5.0,18.0,74,0.00,,,0.00,weatherlink.com 1.10,2013-07-04 13:11:00,
2013-07-04 06:26:00,58.8,51.0,29.99,WSW,244,7.0,17.0,74,0.00,,,0.00,weatherlink.com 1.10,2013-07-04 13:26:00,
2013-07-04 06:41:00,59.0,51.0,30.00,SSE,165,5.0,17.0,74,0.00,,,0.00,weatherlink.com 1.10,2013-07-04 13:41:00,
2013-07-04 06:56:00,59.7,51.0,30.00,SSW,202,1.0,17.0,73,0.00,,,0.00,weatherlink.com 1.10,2013-07-04 13:56:00,
2013-07-04 07:11:00,60.8,48.0,30.01,SW,219,4.0,14.0,62,0.00,,,0.00,weatherlink.com 1.10,2013-07-04 14:11:00,
2013-07-04 07:26:00,61.5,48.0,30.02,SW,236,4.0,10.0,62,0.00,,,0.00,weatherlink.com 1.10,2013-07-04 14:26:00,
2013-07-04 07:41:00,61.6,48.0,30.02,WSW,249,5.0,14.0,61,0.00,,,0.00,weatherlink.com 1.10,2013-07-04 14:41:00,
2013-07-04 07:56:00,61.3,50.0,30.02,SW,231,2.0,12.0,67,0.00,,,0.00,weatherlink.com 1.10,2013-07-04 14:56:00,
2013-07-04 08:11:00,61.6,50.0,30.02,SSW,208,4.0,16.0,65,0.00,,,0.00,weatherlink.com 1.10,2013-07-04 15:11:00,
2013-07-04 08:27:00,63.2,49.0,30.02,South,186,2.0,11.0,60,0.00,,,0.00,weatherlink.com 1.10,2013-07-04 15:27:00,
2013-07-04 08:42:00,64.3,48.0,30.02,West,268,3.0,12.0,56,0.00,,,0.00,weatherlink.com 1.10,2013-07-04 15:42:00,
2013-07-04 08:57:00,64.6,48.0,30.02,SSW,197,5.0,13.0,55,0.00,,,0.00,weatherlink.com 1.10,2013-07-04 15:57:00,
2013-07-04 09:12:00,64.3,49.0,30.02,South,183,3.0,14.0,58,0.00,,,0.00,weatherlink.com 1.10,2013-07-04 16:12:00,
2013-07-04 09:27:00,64.4,49.0,30.01,WSW,255,6.0,15.0,57,0.00,,,0.00,weatherlink.com 1.10,2013-07-04 16:27:00,
2013-07-04 09:42:00,64.9,49.0,30.01,SW,217,4.0,16.0,57,0.00,,,0.00,weatherlink.com 1.10,2013-07-04 16:42:00,
2013-07-04 09:57:00,65.0,50.0,30.01,WSW,237,10.0,15.0,59,0.00,,,0.00,weatherlink.com 1.10,2013-07-04 16:57:00,
2013-07-04 10:12:00,65.7,50.0,30.01,SSW,210,10.0,16.0,57,0.00,,,0.00,weatherlink.com 1.10,2013-07-04 17:12:00,
2013-07-04 10:27:00,66.5,50.0,30.01,SSW,196,7.0,15.0,55,0.00,,,0.00,weatherlink.com 1.10,2013-07-04 17:27:00,
2013-07-04 10:42:00,66.6,50.0,30.01,South,190,4.0,15.0,56,0.00,,,0.00,weatherlink.com 1.10,2013-07-04 17:42:00,
2013-07-04 10:57:00,67.3,51.0,30.00,SSW,194,9.0,19.0,56,0.00,,,0.00,weatherlink.com 1.10,2013-07-04 17:57:00,
2013-07-04 11:12:00,68.1,50.0,30.00,WSW,250,8.0,21.0,53,0.00,,,0.00,weatherlink.com 1.10,2013-07-04 18:12:00,
2013-07-04 11:27:00,68.5,50.0,30.00,SW,229,11.0,21.0,52,0.00,,,0.00,weatherlink.com 1.10,2013-07-04 18:27:00,
2013-07-04 11:42:00,69.6,50.0,29.99,WSW,246,11.0,19.0,50,0.00,,,0.00,weatherlink.com 1.10,2013-07-04 18:42:00,
2013-07-04 11:57:00,70.1,51.0,29.99,WSW,237,18.0,18.0,51,0.00,,,0.00,weatherlink.com 1.10,2013-07-04 18:57:00,
2013-07-04 12:12:00,70.6,51.0,29.99,SW,220,8.0,18.0,51,0.00,,,0.00,weatherlink.com 1.10,2013-07-04 19:12:00,
2013-07-04 12:27:00,71.1,53.0,29.99,WSW,251,2.0,18.0,53,0.00,,,0.00,weatherlink.com 1.10,2013-07-04 19:27:00,
2013-07-04 12:42:00,71.5,52.0,29.98,SSE,150,6.0,20.0,50,0.00,,,0.00,weatherlink.com 1.10,2013-07-04 19:42:00,
2013-07-04 12:57:00,72.3,52.0,29.98,WSW,253,5.0,23.0,49,0.00,,,0.00,weatherlink.com 1.10,2013-07-04 19:57:00,
2013-07-04 13:12:00,72.8,52.0,29.98,SSW,194,8.0,16.0,49,0.00,,,0.00,weatherlink.com 1.10,2013-07-04 20:12:00,
2013-07-04 13:27:00,72.6,52.0,29.97,SSW,198,7.0,16.0,49,0.00,,,0.00,weatherlink.com 1.10,2013-07-04 20:27:00,
2013-07-04 13:42:00,73.1,53.0,29.97,South,185,5.0,14.0,50,0.00,,,0.00,weatherlink.com 1.10,2013-07-04 20:42:00,
2013-07-04 13:57:00,72.9,53.0,29.96,SW,225,9.0,17.0,50,0.00,,,0.00,weatherlink.com 1.10,2013-07-04 20:57:00,
2013-07-04 14:12:00,73.1,53.0,29.96,West,272,7.0,16.0,50,0.00,,,0.00,weatherlink.com 1.10,2013-07-04 21:12:00,
2013-07-04 14:27:00,73.0,53.0,29.95,SW,232,10.0,18.0,50,0.00,,,0.00,weatherlink.com 1.10,2013-07-04 21:27:00,
2013-07-04 14:42:00,73.4,54.0,29.95,SSW,211,7.0,18.0,51,0.00,,,0.00,weatherlink.com 1.10,2013-07-04 21:42:00,
2013-07-04 14:57:00,73.8,54.0,29.95,South,188,3.0,14.0,50,0.00,,,0.00,weatherlink.com 1.10,2013-07-04 21:57:00,
2013-07-04 15:12:00,73.9,54.0,29.95,SW,218,6.0,16.0,50,0.00,,,0.00,weatherlink.com 1.10,2013-07-04 22:12:00,
2013-07-04 15:27:00,73.7,54.0,29.94,South,191,5.0,12.0,51,0.00,,,0.00,weatherlink.com 1.10,2013-07-04 22:27:00,
2013-07-04 15:42:00,73.9,54.0,29.94,SW,224,7.0,21.0,50,0.00,,,0.00,weatherlink.com 1.10,2013-07-04 22:42:00,
2013-07-04 15:57:00,74.1,54.0,29.94,SSE,165,6.0,14.0,50,0.00,,,0.00,weatherlink.com 1.10,2013-07-04 22:57:00,
2013-07-04 16:12:00,74.0,54.0,29.93,SW,221,8.0,19.0,50,0.00,,,0.00,weatherlink.com 1.10,2013-07-04 23:12:00,
2013-07-04 16:27:00,74.0,54.0,29.92,SW,222,4.0,15.0,50,0.00,,,0.00,weatherlink.com 1.10,2013-07-04 23:27:00,
2013-07-04 16:42:00,74.1,54.0,29.92,SSW,196,6.0,15.0,50,0.00,,,0.00,weatherlink.com 1.10,2013-07-04 23:42:00,
2013-07-04 16:57:00,73.8,55.0,29.92,South,191,4.0,17.0,52,0.00,,,0.00,weatherlink.com 1.10,2013-07-04 23:57:00,
2013-07-04 17:12:00,73.2,54.0,29.91,SSE,165,7.0,17.0,51,0.00,,,0.00,weatherlink.com 1.10,2013-07-05 00:12:00,
2013-07-04 17:27:00,72.8,55.0,29.91,SSE,165,10.0,16.0,53,0.00,,,0.00,weatherlink.com 1.10,2013-07-05 00:27:00,
2013-07-04 17:42:00,72.5,54.0,29.91,SW,217,4.0,15.0,52,0.00,,,0.00,weatherlink.com 1.10,2013-07-05 00:42:00,
2013-07-04 17:57:00,72.1,54.0,29.91,WSW,250,6.0,15.0,53,0.00,,,0.00,weatherlink.com 1.10,2013-07-05 00:57:00,
2013-07-04 18:12:00,71.9,54.0,29.91,WSW,237,8.0,15.0,53,0.00,,,0.00,weatherlink.com 1.10,2013-07-05 01:12:00,
2013-07-04 18:27:00,71.7,54.0,29.91,South,170,4.0,14.0,54,0.00,,,0.00,weatherlink.com 1.10,2013-07-05 01:27:00,
2013-07-04 18:42:00,71.3,54.0,29.91,SW,228,7.0,17.0,54,0.00,,,0.00,weatherlink.com 1.10,2013-07-05 01:42:00,
2013-07-04 18:57:00,71.1,53.0,29.91,WSW,243,7.0,17.0,54,0.00,,,0.00,weatherlink.com 1.10,2013-07-05 01:57:00,
2013-07-04 19:12:00,70.7,54.0,29.91,SW,226,1.0,14.0,55,0.00,,,0.00,weatherlink.com 1.10,2013-07-05 02:12:00,
2013-07-04 19:27:00,70.3,54.0,29.90,SW,225,4.0,13.0,56,0.00,,,0.00,weatherlink.com 1.10,2013-07-05 02:27:00,
2013-07-04 19:42:00,70.0,54.0,29.91,NNW,344,0.0,8.0,57,0.00,,,0.00,weatherlink.com 1.10,2013-07-05 02:42:00,
2013-07-04 19:57:00,69.4,53.0,29.91,North,2,4.0,7.0,57,0.00,,,0.00,weatherlink.com 1.10,2013-07-05 02:57:00,
2013-07-04 20:12:00,68.9,53.0,29.90,WSW,239,2.0,8.0,58,0.00,,,0.00,weatherlink.com 1.10,2013-07-05 03:12:00,
2013-07-04 20:27:00,68.5,53.0,29.91,South,170,2.0,12.0,59,0.00,,,0.00,weatherlink.com 1.10,2013-07-05 03:27:00,
2013-07-04 20:42:00,68.1,53.0,29.91,WSW,239,7.0,14.0,59,0.00,,,0.00,weatherlink.com 1.10,2013-07-05 03:42:00,
2013-07-04 20:57:00,67.8,54.0,29.91,SW,232,4.0,13.0,61,0.00,,,0.00,weatherlink.com 1.10,2013-07-05 03:57:00,
2013-07-04 21:12:00,67.4,54.0,29.92,SSW,198,12.0,14.0,62,0.00,,,0.00,weatherlink.com 1.10,2013-07-05 04:12:00,
2013-07-04 21:27:00,67.0,53.0,29.92,West,280,4.0,13.0,62,0.00,,,0.00,weatherlink.com 1.10,2013-07-05 04:27:00,
2013-07-04 21:42:00,66.6,53.0,29.93,South,175,4.0,14.0,63,0.00,,,0.00,weatherlink.com 1.10,2013-07-05 04:42:00,
2013-07-04 21:57:00,66.3,53.0,29.93,SW,232,9.0,19.0,62,0.00,,,0.00,weatherlink.com 1.10,2013-07-05 04:57:00,
2013-07-04 22:12:00,65.9,53.0,29.94,WSW,253,3.0,13.0,63,0.00,,,0.00,weatherlink.com 1.10,2013-07-05 05:12:00,
2013-07-04 22:27:00,65.3,52.0,29.95,SW,219,0.0,11.0,63,0.00,,,0.00,weatherlink.com 1.10,2013-07-05 05:27:00,
2013-07-04 22:42:00,64.9,52.0,29.95,WSW,244,1.0,8.0,64,0.00,,,0.00,weatherlink.com 1.10,2013-07-05 05:42:00,
2013-07-04 22:57:00,64.4,52.0,29.95,WSW,243,3.0,10.0,64,0.00,,,0.00,weatherlink.com 1.10,2013-07-05 05:57:00,
2013-07-04 23:12:00,63.8,52.0,29.95,SW,231,3.0,7.0,65,0.00,,,0.00,weatherlink.com 1.10,2013-07-05 06:12:00,
2013-07-04 23:27:00,63.3,51.0,29.95,SSW,198,7.0,7.0,65,0.00,,,0.00,weatherlink.com 1.10,2013-07-05 06:27:00,
2013-07-04 23:42:00,63.1,51.0,29.95,WSW,256,2.0,8.0,66,0.00,,,0.00,weatherlink.com 1.10,2013-07-05 06:42:00,
2013-07-04 23:57:00,62.8,51.0,29.95,WSW,241,5.0,14.0,66,0.00,,,0.00,weatherlink.com 1.10,2013-07-05 06:57:00,